createdAt,value
2023-04-14T00:02:28.656Z,17.51
2023-04-14T00:05:34.435Z,17.50
2023-04-14T00:08:36.432Z,17.49
2023-04-14T00:11:38.468Z,17.49
2023-04-14T00:14:42.441Z,17.45
2023-04-14T00:17:44.775Z,17.44
2023-04-14T00:20:47.961Z,17.45
2023-04-14T00:23:50.323Z,17.43
2023-04-14T00:26:52.418Z,17.43
2023-04-14T00:29:54.649Z,17.39
2023-04-14T00:32:56.778Z,17.39
2023-04-14T00:35:58.894Z,17.38
2023-04-14T00:39:01.400Z,17.37
2023-04-14T00:42:04.068Z,17.35
2023-04-14T00:45:06.465Z,17.34
2023-04-14T00:48:09.162Z,17.34
2023-04-14T00:51:11.441Z,17.33
2023-04-14T00:54:17.423Z,17.32
2023-04-14T00:57:19.608Z,17.31
2023-04-14T01:00:21.746Z,17.30
2023-04-14T01:03:24.685Z,17.31
2023-04-14T01:06:27.160Z,17.29
2023-04-14T01:09:29.425Z,17.29
2023-04-14T01:12:46.681Z,17.25
2023-04-14T01:15:57.749Z,17.24
2023-04-14T01:19:21.437Z,17.25
2023-04-14T01:22:26.261Z,17.22
2023-04-14T01:25:56.155Z,17.22
2023-04-14T01:29:08.759Z,17.20
2023-04-14T01:32:14.621Z,17.18
2023-04-14T01:35:21.087Z,17.19
2023-04-14T01:38:28.524Z,17.17
2023-04-14T01:41:31.281Z,17.16
2023-04-14T01:44:34.817Z,17.16
2023-04-14T01:47:37.656Z,17.14
2023-04-14T01:50:41.996Z,17.13
2023-04-14T01:53:45.280Z,17.13
2023-04-14T01:56:48.864Z,17.10
2023-04-14T01:59:53.735Z,17.08
2023-04-14T02:02:56.619Z,17.08
2023-04-14T02:06:01.987Z,17.07
2023-04-14T02:09:05.700Z,17.07
2023-04-14T02:12:09.067Z,17.04
2023-04-14T02:15:13.636Z,17.05
2023-04-14T02:18:17.633Z,17.04
2023-04-14T02:21:22.763Z,17.02
2023-04-14T02:24:25.315Z,17.01
2023-04-14T02:27:52.981Z,17.02
2023-04-14T02:30:57.926Z,17.00
2023-04-14T02:34:01.967Z,16.98
2023-04-14T02:37:10.258Z,16.96
2023-04-14T02:40:20.345Z,16.95
2023-04-14T02:43:31.133Z,16.94
2023-04-14T02:46:37.163Z,16.93
2023-04-14T02:49:45.111Z,16.92
2023-04-14T02:52:51.330Z,16.89
2023-04-14T02:55:53.434Z,16.90
2023-04-14T02:58:55.729Z,16.90
2023-04-14T03:02:02.206Z,16.89
2023-04-14T03:05:06.091Z,16.88
2023-04-14T03:08:12.586Z,16.86
2023-04-14T03:11:15.424Z,16.86
2023-04-14T03:14:20.401Z,16.85
2023-04-14T03:17:23.007Z,16.84
2023-04-14T03:20:26.522Z,16.84
2023-04-14T03:23:29.000Z,16.79
2023-04-14T03:26:34.459Z,16.77
2023-04-14T03:29:43.105Z,16.79
2023-04-14T03:32:47.587Z,16.79
2023-04-14T03:35:52.857Z,16.77
2023-04-14T03:38:59.224Z,16.76
2023-04-14T03:42:02.544Z,16.75
2023-04-14T03:45:05.028Z,16.74
2023-04-14T03:48:11.928Z,16.73
2023-04-14T03:51:16.150Z,16.71
2023-04-14T03:54:19.099Z,16.72
2023-04-14T03:57:23.154Z,16.70
2023-04-14T04:00:26.903Z,16.67
2023-04-14T04:03:29.934Z,16.69
2023-04-14T04:06:33.049Z,16.67
2023-04-14T04:09:36.558Z,16.65
2023-04-14T04:12:41.604Z,16.64
2023-04-14T04:15:45.228Z,16.64
2023-04-14T04:18:49.818Z,16.64
2023-04-14T04:21:55.805Z,16.92
2023-04-14T04:24:58.660Z,17.10
2023-04-14T04:28:02.031Z,17.18
2023-04-14T04:31:06.161Z,17.24
2023-04-14T04:34:09.129Z,17.30
2023-04-14T04:37:11.872Z,17.35
2023-04-14T04:40:14.296Z,17.48
2023-04-14T04:43:20.868Z,17.56
2023-04-14T04:47:03.323Z,17.59
2023-04-14T04:50:05.683Z,17.68
2023-04-14T04:53:07.747Z,17.77
2023-04-14T04:56:09.886Z,17.83
2023-04-14T04:59:11.963Z,17.81
2023-04-14T05:02:14.034Z,17.87
2023-04-14T05:05:16.111Z,17.94
2023-04-14T05:08:18.098Z,18.03
2023-04-14T05:11:20.681Z,18.07
2023-04-14T05:14:23.155Z,18.05
2023-04-14T05:17:25.159Z,18.06
2023-04-14T05:20:27.229Z,18.04
2023-04-14T05:23:29.587Z,18.05
2023-04-14T05:26:54.405Z,18.06
2023-04-14T05:29:54.087Z,18.05
2023-04-14T05:32:56.188Z,18.07
2023-04-14T05:35:58.217Z,18.08
2023-04-14T05:39:00.263Z,18.12
2023-04-14T05:42:02.367Z,18.19
2023-04-14T05:45:04.728Z,18.28
2023-04-14T05:48:07.139Z,18.27
2023-04-14T05:51:09.260Z,18.28
2023-04-14T05:54:11.299Z,18.35
2023-04-14T05:57:13.349Z,18.37
2023-04-14T06:00:15.594Z,18.43
2023-04-14T06:03:17.820Z,18.50
2023-04-14T06:06:20.235Z,18.56
2023-04-14T06:09:22.284Z,18.59
2023-04-14T06:12:24.325Z,18.64
2023-04-14T06:15:29.561Z,18.72
2023-04-14T06:18:31.600Z,18.81
2023-04-14T06:21:33.590Z,18.95
2023-04-14T06:24:35.914Z,19.03
2023-04-14T06:27:38.070Z,19.10
2023-04-14T06:30:40.317Z,19.15
2023-04-14T06:33:42.412Z,19.23
2023-04-14T06:36:44.587Z,19.32
2023-04-14T06:39:46.681Z,19.41
2023-04-14T06:42:48.714Z,19.43
2023-04-14T06:45:51.089Z,19.53
2023-04-14T06:48:53.323Z,19.60
2023-04-14T06:51:55.425Z,19.70
2023-04-14T06:54:57.506Z,19.84
2023-04-14T06:57:59.535Z,20.02
2023-04-14T07:01:03.224Z,20.03
2023-04-14T07:04:07.600Z,20.06
2023-04-14T07:07:10.164Z,20.15
2023-04-14T07:10:12.781Z,20.17
2023-04-14T07:13:14.765Z,20.40
2023-04-14T07:16:16.856Z,20.51
2023-04-14T07:19:19.271Z,20.61
2023-04-14T07:22:21.390Z,20.66
2023-04-14T07:25:23.771Z,20.68
2023-04-14T07:28:27.166Z,20.69
2023-04-14T07:31:31.650Z,20.76
2023-04-14T07:34:33.891Z,20.79
2023-04-14T07:37:35.929Z,20.78
2023-04-14T07:40:40.030Z,20.86
2023-04-14T07:43:42.377Z,20.94
2023-04-14T07:46:44.971Z,21.00
2023-04-14T07:49:47.268Z,21.15
2023-04-14T07:52:49.302Z,21.29
2023-04-14T07:55:51.403Z,21.32
2023-04-14T07:58:53.414Z,21.35
2023-04-14T08:01:55.542Z,21.30
2023-04-14T08:04:57.966Z,21.33
2023-04-14T08:08:00.111Z,21.33
2023-04-14T08:11:02.130Z,21.29
2023-04-14T08:14:04.884Z,21.36
2023-04-14T08:17:06.977Z,21.37
2023-04-14T08:20:09.441Z,21.38
2023-04-14T08:23:12.038Z,21.40
2023-04-14T08:26:14.460Z,21.39
2023-04-14T08:29:16.657Z,21.53
2023-04-14T08:32:18.732Z,21.43
2023-04-14T08:35:38.249Z,21.57
2023-04-14T08:38:43.342Z,21.72
2023-04-14T08:41:45.390Z,21.63
2023-04-14T08:44:48.459Z,21.62
2023-04-14T08:47:54.954Z,21.68
2023-04-14T08:51:32.218Z,21.70
2023-04-14T08:54:34.411Z,21.70
2023-04-14T08:57:36.776Z,21.52
2023-04-14T09:00:40.010Z,21.52
2023-04-14T09:03:43.426Z,21.24
2023-04-14T09:06:45.723Z,21.24
2023-04-14T09:09:48.084Z,21.40
2023-04-14T09:12:50.230Z,21.38
2023-04-14T09:15:52.403Z,21.25
2023-04-14T09:18:54.782Z,21.30
2023-04-14T09:21:57.119Z,21.02
2023-04-14T09:24:59.388Z,21.00
2023-04-14T09:28:01.501Z,20.75
2023-04-14T09:31:04.610Z,20.84
2023-04-14T09:34:19.037Z,21.04
2023-04-14T09:37:22.535Z,20.96
2023-04-14T09:40:31.015Z,21.08
2023-04-14T09:43:33.253Z,21.09
2023-04-14T09:46:35.277Z,21.03
2023-04-14T09:49:53.050Z,21.04
2023-04-14T09:52:55.044Z,21.06
2023-04-14T09:55:59.595Z,21.07
2023-04-14T09:59:02.936Z,21.05
2023-04-14T10:02:07.313Z,20.99
2023-04-14T10:05:09.797Z,21.00
2023-04-14T10:08:12.002Z,21.14
2023-04-14T10:11:18.495Z,21.36
2023-04-14T10:14:20.801Z,21.36
2023-04-14T10:17:23.072Z,21.61
2023-04-14T10:20:26.963Z,21.19
2023-04-14T10:23:31.140Z,21.06
2023-04-14T10:26:34.686Z,20.96
2023-04-14T10:29:40.906Z,20.88
2023-04-14T10:32:45.877Z,20.88
2023-04-14T10:35:53.576Z,20.80
2023-04-14T10:39:02.050Z,20.72
2023-04-14T10:42:05.958Z,20.68
2023-04-14T10:45:10.159Z,20.70
2023-04-14T10:48:12.553Z,20.63
2023-04-14T10:51:17.993Z,20.54
2023-04-14T10:54:20.156Z,20.46
2023-04-14T10:57:23.797Z,20.49
2023-04-14T11:00:28.296Z,20.53
2023-04-14T11:03:44.974Z,20.55
2023-04-14T11:06:47.464Z,20.56
2023-04-14T11:09:49.605Z,20.54
2023-04-14T11:13:16.033Z,20.60
2023-04-14T11:16:28.747Z,20.64
2023-04-14T11:19:31.498Z,20.68
2023-04-14T11:22:45.744Z,20.71
2023-04-14T11:25:48.404Z,20.72
2023-04-14T11:28:53.138Z,20.68
2023-04-14T11:32:05.570Z,20.65
2023-04-14T11:35:08.635Z,20.70
2023-04-14T11:38:14.583Z,20.74
2023-04-14T11:41:16.880Z,20.71
2023-04-14T11:44:19.989Z,20.74
2023-04-14T11:47:22.457Z,20.76
2023-04-14T11:50:24.862Z,20.76
2023-04-14T11:53:27.252Z,20.81
2023-04-14T11:56:31.799Z,20.86
2023-04-14T11:59:42.089Z,20.90
2023-04-14T12:02:45.499Z,20.94
2023-04-14T12:05:48.523Z,20.96
2023-04-14T12:08:53.529Z,20.96
2023-04-14T12:11:55.652Z,20.95
2023-04-14T12:14:58.026Z,20.95
2023-04-14T12:18:00.726Z,20.90
2023-04-14T12:21:06.335Z,20.93
2023-04-14T12:24:09.554Z,21.06
2023-04-14T12:27:12.475Z,21.22
2023-04-14T12:30:20.701Z,21.23
2023-04-14T12:33:24.081Z,21.24
2023-04-14T12:36:36.992Z,21.20
2023-04-14T12:39:50.974Z,21.18
2023-04-14T12:42:52.949Z,21.21
2023-04-14T12:45:55.440Z,21.23
2023-04-14T12:48:57.658Z,21.23
2023-04-14T12:52:00.398Z,21.22
2023-04-14T12:55:03.129Z,21.18
2023-04-14T12:58:05.261Z,21.21
2023-04-14T13:01:08.553Z,21.25
2023-04-14T13:04:10.760Z,21.30
2023-04-14T13:07:12.844Z,21.29
2023-04-14T13:10:15.564Z,21.33
2023-04-14T13:13:17.607Z,21.34
2023-04-14T13:16:20.787Z,21.27
2023-04-14T13:19:23.472Z,21.31
2023-04-14T13:22:25.655Z,21.27
2023-04-14T13:25:27.705Z,21.25
2023-04-14T13:28:29.969Z,21.21
2023-04-14T13:31:32.212Z,21.28
2023-04-14T13:34:34.198Z,21.42
2023-04-14T13:37:36.239Z,21.40
2023-04-14T13:40:38.301Z,21.48
2023-04-14T13:43:40.292Z,21.50
2023-04-14T13:46:44.486Z,21.60
2023-04-14T13:49:46.854Z,21.35
2023-04-14T13:52:48.876Z,21.31
2023-04-14T13:55:51.162Z,21.39
2023-04-14T13:58:54.324Z,21.46
2023-04-14T14:01:56.452Z,21.54
2023-04-14T14:04:59.531Z,21.46
2023-04-14T14:08:01.581Z,21.36
2023-04-14T14:11:07.449Z,20.76
2023-04-14T14:14:09.959Z,20.80
2023-04-14T14:17:12.225Z,21.28
2023-04-14T14:20:14.459Z,21.55
2023-04-14T14:23:16.531Z,21.67
2023-04-14T14:26:18.720Z,21.68
2023-04-14T14:29:20.750Z,21.67
2023-04-14T14:32:22.846Z,21.72
2023-04-14T14:35:25.223Z,21.75
2023-04-14T14:38:27.362Z,21.79
2023-04-14T14:41:29.417Z,21.78
2023-04-14T14:44:31.844Z,21.78
2023-04-14T14:47:34.064Z,21.79
2023-04-14T14:50:36.413Z,21.75
2023-04-14T14:53:38.357Z,21.78
2023-04-14T14:56:40.439Z,21.79
2023-04-14T14:59:42.463Z,21.80
2023-04-14T15:02:44.934Z,21.81
2023-04-14T15:05:48.866Z,21.79
2023-04-14T15:08:51.099Z,21.77
2023-04-14T15:11:53.101Z,21.77
2023-04-14T15:14:55.127Z,21.78
2023-04-14T15:17:57.320Z,21.80
2023-04-14T15:20:59.461Z,21.80
2023-04-14T15:24:01.871Z,21.79
2023-04-14T15:27:04.114Z,21.79
2023-04-14T15:30:07.453Z,21.80
2023-04-14T15:33:09.504Z,21.78
2023-04-14T15:36:11.657Z,21.75
2023-04-14T15:39:13.687Z,21.70
2023-04-14T15:42:15.870Z,21.69
2023-04-14T15:45:18.274Z,21.64
2023-04-14T15:48:20.549Z,21.60
2023-04-14T15:51:22.570Z,21.57
2023-04-14T15:54:24.910Z,21.57
2023-04-14T15:57:26.938Z,21.57
2023-04-14T16:00:28.971Z,21.55
2023-04-14T16:03:31.502Z,21.55
2023-04-14T16:06:36.200Z,21.52
2023-04-14T16:09:38.261Z,21.50
2023-04-14T16:12:40.776Z,21.45
2023-04-14T16:15:43.558Z,21.42
2023-04-14T16:18:45.612Z,21.37
2023-04-14T16:21:47.950Z,21.33
2023-04-14T16:24:49.980Z,21.30
2023-04-14T16:27:51.995Z,21.24
2023-04-14T16:30:55.213Z,21.21
2023-04-14T16:33:57.769Z,21.18
2023-04-14T16:36:59.764Z,21.19
2023-04-14T16:40:01.902Z,21.20
2023-04-14T16:43:04.379Z,21.19
2023-04-14T16:46:07.871Z,21.16
2023-04-14T16:49:10.908Z,21.16
2023-04-14T16:52:13.037Z,21.09
2023-04-14T16:55:15.800Z,21.04
2023-04-14T16:58:17.800Z,20.96
2023-04-14T17:01:19.873Z,20.89
2023-04-14T17:04:22.286Z,20.85
2023-04-14T17:07:24.474Z,20.80
2023-04-14T17:10:28.881Z,20.75
2023-04-14T17:13:30.958Z,20.72
2023-04-14T17:16:33.227Z,20.66
2023-04-14T17:19:35.482Z,20.65
2023-04-14T17:22:38.314Z,20.61
2023-04-14T17:25:41.233Z,20.58
2023-04-14T17:28:44.001Z,20.54
2023-04-14T17:31:46.258Z,20.48
2023-04-14T17:34:48.891Z,20.46
2023-04-14T17:37:51.055Z,20.46
2023-04-14T17:40:54.560Z,20.42
2023-04-14T17:43:56.938Z,20.37
2023-04-14T17:47:03.351Z,20.37
2023-04-14T17:50:06.432Z,20.32
2023-04-14T17:53:08.499Z,20.29
2023-04-14T17:56:11.436Z,20.27
2023-04-14T17:59:13.488Z,20.25
2023-04-14T18:02:16.189Z,20.21
2023-04-14T18:05:18.589Z,20.18
2023-04-14T18:08:20.600Z,20.15
2023-04-14T18:11:22.817Z,20.15
2023-04-14T18:14:26.454Z,20.12
2023-04-14T18:17:28.955Z,20.09
2023-04-14T18:20:30.952Z,20.06
2023-04-14T18:23:33.000Z,20.05
2023-04-14T18:26:35.445Z,20.02
2023-04-14T18:29:37.456Z,20.01
2023-04-14T18:32:39.500Z,19.99
2023-04-14T18:35:41.574Z,19.97
2023-04-14T18:38:43.627Z,19.96
2023-04-14T18:41:46.826Z,19.96
2023-04-14T18:44:49.002Z,19.76
2023-04-14T18:47:51.132Z,19.69
2023-04-14T18:51:02.411Z,19.76
2023-04-14T18:54:04.636Z,19.77
2023-04-14T18:57:06.865Z,19.79
2023-04-14T19:00:09.529Z,19.75
2023-04-14T19:03:11.961Z,19.71
2023-04-14T19:06:14.430Z,19.70
2023-04-14T19:09:16.505Z,19.69
2023-04-14T19:12:28.038Z,19.67
2023-04-14T19:15:30.775Z,19.66
2023-04-14T19:18:32.847Z,19.62
2023-04-14T19:21:34.910Z,19.60
2023-04-14T19:24:37.252Z,19.59
2023-04-14T19:27:41.652Z,19.57
2023-04-14T19:30:45.833Z,19.56
2023-04-14T19:33:48.979Z,19.53
2023-04-14T19:36:51.425Z,19.50
2023-04-14T19:39:53.863Z,19.50
2023-04-14T19:42:55.920Z,19.48
2023-04-14T19:46:02.869Z,19.48
2023-04-14T19:49:05.531Z,19.48
2023-04-14T19:52:08.606Z,19.45
2023-04-14T19:55:10.714Z,19.42
2023-04-14T19:58:12.778Z,19.42
2023-04-14T20:01:14.825Z,19.40
2023-04-14T20:04:17.691Z,19.37
2023-04-14T20:07:19.974Z,19.37
2023-04-14T20:10:22.101Z,19.32
2023-04-14T20:13:27.470Z,19.32
2023-04-14T20:16:29.677Z,19.32
2023-04-14T20:19:31.764Z,19.28
2023-04-14T20:22:34.032Z,19.27
2023-04-14T20:25:37.184Z,19.25
2023-04-14T20:28:40.413Z,19.25
2023-04-14T20:31:42.605Z,19.23
2023-04-14T20:34:44.726Z,19.22
2023-04-14T20:37:47.462Z,19.22
2023-04-14T20:40:49.552Z,19.20
2023-04-14T20:43:51.592Z,19.18
2023-04-14T20:46:54.325Z,19.17
2023-04-14T20:49:56.452Z,19.15
2023-04-14T20:52:58.443Z,19.13
2023-04-14T20:56:00.447Z,19.12
2023-04-14T20:59:02.874Z,19.15
2023-04-14T21:02:05.473Z,19.13
2023-04-14T21:05:07.971Z,19.10
2023-04-14T21:08:10.006Z,19.09
2023-04-14T21:11:15.483Z,19.07
2023-04-14T21:15:30.989Z,19.06
2023-04-14T21:17:41.548Z,19.08
2023-04-14T21:20:43.869Z,19.06
2023-04-14T21:23:46.188Z,19.07
2023-04-14T21:26:48.218Z,19.05
2023-04-14T21:29:50.269Z,19.03
2023-04-14T21:32:52.340Z,19.02
2023-04-14T21:35:57.925Z,19.00
2023-04-14T21:39:00.278Z,18.99
2023-04-14T21:42:03.731Z,18.98
2023-04-14T21:45:07.689Z,18.97
2023-04-14T21:48:09.813Z,18.96
2023-04-14T21:51:11.883Z,18.94
2023-04-14T21:54:14.022Z,18.96
2023-04-14T21:57:16.339Z,18.97
2023-04-14T22:00:18.535Z,18.96
2023-04-14T22:03:20.738Z,18.94
2023-04-14T22:06:24.381Z,18.93
2023-04-14T22:09:26.386Z,18.92
2023-04-14T22:12:28.414Z,18.91
2023-04-14T22:15:30.602Z,18.88
2023-04-14T22:18:32.655Z,18.88
2023-04-14T22:21:34.821Z,18.85
2023-04-14T22:24:36.824Z,18.85
2023-04-14T22:27:38.889Z,18.84
2023-04-14T22:30:40.905Z,18.83
2023-04-14T22:33:43.505Z,18.81
2023-04-14T22:36:45.481Z,18.82
2023-04-14T22:39:47.489Z,18.80
2023-04-14T22:42:49.479Z,18.79
2023-04-14T22:45:51.696Z,18.78
2023-04-14T22:48:56.453Z,18.76
2023-04-14T22:51:58.475Z,18.76
2023-04-14T22:55:00.573Z,18.74
2023-04-14T22:58:02.682Z,18.73
2023-04-14T23:01:19.016Z,18.70
2023-04-14T23:04:26.046Z,18.70
2023-04-14T23:07:28.078Z,18.69
2023-04-14T23:10:30.104Z,18.68
2023-04-14T23:13:32.247Z,18.66
2023-04-14T23:16:34.606Z,18.64
2023-04-14T23:19:36.895Z,18.64
2023-04-14T23:22:39.436Z,18.63
2023-04-14T23:25:41.654Z,18.61
2023-04-14T23:28:43.753Z,18.61
2023-04-14T23:31:46.004Z,18.58
2023-04-14T23:34:48.343Z,18.58
2023-04-14T23:37:50.521Z,18.57
2023-04-14T23:40:58.543Z,18.54
2023-04-14T23:44:00.576Z,18.56
2023-04-14T23:47:02.713Z,18.53
2023-04-14T23:50:05.362Z,18.52
2023-04-14T23:53:07.370Z,18.50
2023-04-14T23:56:09.359Z,18.51
2023-04-14T23:59:11.826Z,18.48
